ROMMA est une association bénévole à but non lucratif. Votre soutien est indispensable : ADHERER à ROMMA ou FAIRE un DON

Chambon - (38, Isère)

Oisans (2460 m)   Longitude: 06° 10' 42" E   Latitude: 45° 01' 32" N Station partenaire n°803
 

Détail journalier du     <<     >>

Température Humidité Vent Dir Rafale Dir. rafale Neige 1 Neige 2
Heure (°C) (%) (km/h) (km/h) (cm) (cm)
01:00 -4.3217E33SSE052
02:00 -3.32516SSE50SSO052
03:00 -2.72531SSO54SSO052
04:00 -3.62734SSO56SSO052
05:00 -3.32737SSO59SSO052
06:00 -3.73343SSO79SSO051
07:00 -3.94042SSO81SSO053
08:00 -4.75535SSO64SSO1252
09:00 -4.45830S59SSO052
10:00 -5.05614N54S051
11:00 -6.36613N37N051
12:00 -6.2848N37N051
13:00 -4.88814S55S053
14:00 -4.58018SSE58S053
15:00 -4.98011ESE50SSE052
16:00 -7.89512NNE41NNE053
17:00 -7.99518NNE40NNE055
18:00 -6.99616NNE52E054
19:00 -7.59621NE55NE058
20:00 -6.99629NE64NE057
21:00 -7.49630NE70NE064
22:00 -7.19622NE54NE063
23:00 -7.19617NNE42NE068
minuit -6.5979NNE32ENE068

Graphique du 14-11-2019

 

Serveur OMMA